Time;durP1;ratioP1;P1;durP2;ratioP2;P2;SDS_P1;SDS_P2;PMS_P1;PMS_P2;Temp;Humidity;BMP_temperature;BMP_pressure;BME280_temperature;BME280_humidity;BME280_pressure;Samples;Min_cycle;Max_cycle;Signal;HPM_P1;HPM_P2
2023/10/29 00:01:36;;;;;;;0.60;0.30;;;16.80;71.10;18.40;98853.00;;;;5029588;28;20207;-75
2023/10/29 00:04:03;;;;;;;0.75;0.38;;;16.80;71.20;18.40;98835.00;;;;5031143;28;20197;-77
2023/10/29 00:06:30;;;;;;;1.30;0.52;;;16.80;71.20;18.40;98836.00;;;;5029382;28;20238;-77
2023/10/29 00:08:57;;;;;;;1.45;0.50;;;16.90;71.20;18.40;98840.00;;;;5029236;28;20202;-76
2023/10/29 00:11:24;;;;;;;1.27;0.40;;;16.90;71.20;18.50;98839.00;;;;5031336;28;20195;-76
2023/10/29 00:13:52;;;;;;;1.13;0.43;;;16.90;71.20;18.50;98831.00;;;;5030699;28;20287;-76
2023/10/29 00:16:19;;;;;;;0.60;0.50;;;16.90;71.10;18.50;98832.00;;;;5031629;28;20205;-76
2023/10/29 00:18:46;;;;;;;2.47;0.43;;;17.00;71.20;18.50;98826.00;;;;5028913;28;20288;-76
2023/10/29 00:21:13;;;;;;;1.08;0.47;;;17.00;71.20;18.50;98826.00;;;;5031354;28;20679;-76
2023/10/29 00:23:40;;;;;;;0.47;0.30;;;17.00;71.10;18.50;98817.00;;;;5031044;28;20193;-76
2023/10/29 00:26:07;;;;;;;1.98;0.60;;;17.00;71.10;18.50;98820.00;;;;5029325;28;20224;-76
2023/10/29 00:28:34;;;;;;;1.15;0.38;;;17.00;71.00;18.50;98820.00;;;;5030181;28;20202;-77
2023/10/29 00:31:03;;;;;;;2.05;0.45;;;17.00;71.10;18.50;98811.00;;;;5034463;28;20239;-75
2023/10/29 00:33:30;;;;;;;2.13;0.35;;;17.00;71.10;18.60;98810.00;;;;5032029;28;20226;-75
2023/10/29 00:35:57;;;;;;;0.98;0.45;;;17.00;71.00;18.60;98813.00;;;;5034144;28;20200;-77
2023/10/29 00:38:25;;;;;;;1.30;0.40;;;17.00;71.70;18.60;98805.00;;;;5032062;28;20202;-76
2023/10/29 00:40:52;;;;;;;2.47;0.30;;;17.00;71.00;18.60;98801.00;;;;5016420;28;20294;-75
2023/10/29 00:43:19;;;;;;;1.08;0.52;;;17.10;71.00;18.60;98783.00;;;;5033991;28;20696;-75
2023/10/29 00:45:53;;;;;;;2.30;0.57;;;17.10;71.00;18.60;98776.00;;;;5034100;28;20576;-76
2023/10/29 00:48:22;;;;;;;4.00;0.77;;;17.10;71.00;18.60;98780.00;;;;5031154;28;20685;-76
2023/10/29 00:50:50;;;;;;;0.95;0.50;;;17.10;71.00;18.60;98776.00;;;;5033727;28;20200;-75
2023/10/29 00:53:17;;;;;;;0.93;0.40;;;17.10;71.10;18.60;98767.00;;;;5033460;28;20192;-74
2023/10/29 00:55:45;;;;;;;1.17;0.35;;;17.10;71.00;18.60;98769.00;;;;5025861;28;20658;-75
2023/10/29 00:58:13;;;;;;;1.20;0.47;;;17.10;71.00;18.60;98752.00;;;;5026903;28;20557;-76
2023/10/29 01:00:40;;;;;;;2.38;0.50;;;17.10;71.00;18.60;98750.00;;;;5034000;28;20214;-75
2023/10/29 01:03:07;;;;;;;0.35;0.30;;;17.20;71.10;18.70;98776.00;;;;5033858;28;20216;-76
2023/10/29 01:05:37;;;;;;;0.90;0.40;;;17.10;71.00;18.60;98755.00;;;;5032107;28;20216;-76
2023/10/29 01:08:05;;;;;;;0.73;0.30;;;17.10;71.00;18.70;98765.00;;;;5032404;28;20196;-75
2023/10/29 01:10:33;;;;;;;1.00;0.50;;;17.20;71.00;18.70;98764.00;;;;5033840;28;20212;-76
2023/10/29 01:13:00;;;;;;;0.40;0.25;;;17.20;71.00;18.70;98759.00;;;;5017533;28;20619;-76
2023/10/29 01:15:27;;;;;;;1.15;0.30;;;17.20;71.00;18.70;98760.00;;;;5031981;28;20209;-75
2023/10/29 01:17:54;;;;;;;0.57;0.22;;;17.20;70.90;18.70;98762.00;;;;5034093;28;20192;-75
2023/10/29 01:20:21;;;;;;;1.70;0.52;;;17.20;71.00;18.70;98762.00;;;;5033475;28;20200;-76
2023/10/29 01:22:49;;;;;;;0.60;0.50;;;17.20;70.90;18.70;98751.00;;;;5033180;28;20196;-75
2023/10/29 01:25:17;;;;;;;1.98;0.85;;;17.20;70.90;18.70;98733.00;;;;5029650;28;20247;-76
2023/10/29 01:27:44;;;;;;;0.75;0.40;;;17.20;70.90;18.70;98737.00;;;;5033806;28;20231;-75
2023/10/29 01:30:13;;;;;;;0.40;0.15;;;17.20;70.80;18.70;98733.00;;;;5033446;28;20220;-75
2023/10/29 01:32:40;;;;;;;0.73;0.28;;;17.20;70.80;18.70;98723.00;;;;5032646;28;20236;-76
2023/10/29 01:35:08;;;;;;;1.10;0.38;;;17.20;70.90;18.70;98729.00;;;;5031835;28;20202;-75
2023/10/29 01:37:35;;;;;;;0.93;0.45;;;17.20;70.80;18.70;98722.00;;;;5032730;28;20669;-75
2023/10/29 01:40:04;;;;;;;1.63;0.50;;;17.20;70.80;18.70;98722.00;;;;5031828;28;20203;-75
2023/10/29 01:42:31;;;;;;;0.38;0.22;;;17.20;70.80;18.70;98712.00;;;;5026492;28;20665;-75
2023/10/29 01:44:58;;;;;;;0.90;0.35;;;17.20;70.80;18.80;98711.00;;;;5031265;28;20197;-75
2023/10/29 01:47:25;;;;;;;1.13;0.28;;;17.20;70.80;18.80;98705.00;;;;5032008;28;20196;-76
2023/10/29 01:49:52;;;;;;;7.93;0.80;;;17.20;70.80;18.80;98715.00;;;;5031931;28;20666;-76
2023/10/29 01:52:19;;;;;;;1.23;0.40;;;17.20;70.80;18.80;98710.00;;;;5032459;28;20203;-76
2023/10/29 01:54:46;;;;;;;1.67;0.38;;;17.30;70.90;18.80;98714.00;;;;5031709;28;20203;-75
2023/10/29 01:57:15;;;;;;;0.52;0.30;;;17.20;70.80;18.80;98708.00;;;;5032384;28;20211;-75
2023/10/29 01:59:42;;;;;;;2.38;0.70;;;17.30;70.90;18.80;98705.00;;;;5031305;28;20192;-75
2023/10/29 02:02:10;;;;;;;0.98;0.30;;;17.30;70.90;18.80;98704.00;;;;5032857;28;20203;-76
2023/10/29 02:04:37;;;;;;;1.27;0.40;;;17.30;71.60;18.80;98692.00;;;;5031910;28;20192;-76
2023/10/29 02:07:04;;;;;;;0.90;0.50;;;17.30;70.90;18.80;98678.00;;;;5031798;28;20600;-74
2023/10/29 02:09:31;;;;;;;0.75;0.55;;;17.30;70.90;18.80;98683.00;;;;5031375;28;20568;-75
2023/10/29 02:11:58;;;;;;;0.55;0.30;;;17.40;70.90;18.80;98671.00;;;;5031737;28;20261;-75
2023/10/29 02:14:28;;;;;;;1.52;0.47;;;17.40;71.50;18.80;98670.00;;;;5031479;28;20208;-75
2023/10/29 02:16:55;;;;;;;0.75;0.28;;;17.40;70.80;18.90;98667.00;;;;5031658;28;20587;-74
2023/10/29 02:19:23;;;;;;;0.52;0.25;;;17.40;70.70;18.90;98666.00;;;;5031362;28;20193;-74
2023/10/29 02:21:54;;;;;;;0.47;0.30;;;17.40;70.60;18.80;98679.00;;;;5030225;28;20727;-75
2023/10/29 02:24:22;;;;;;;1.05;0.60;;;17.40;70.50;18.90;98687.00;;;;5031558;28;20192;-75
2023/10/29 02:26:49;;;;;;;0.82;0.30;;;17.50;70.50;18.90;98689.00;;;;5031111;28;20315;-75
2023/10/29 02:29:16;;;;;;;2.65;0.75;;;17.40;70.40;18.90;98690.00;;;;5028206;28;20304;-76
2023/10/29 02:31:43;;;;;;;0.80;0.40;;;17.40;70.30;18.90;98692.00;;;;5031511;28;20228;-75
2023/10/29 02:34:11;;;;;;;1.95;0.65;;;17.40;70.30;18.90;98697.00;;;;5032512;28;20222;-75
2023/10/29 02:36:38;;;;;;;1.23;0.45;;;17.40;70.30;18.90;98676.00;;;;5031035;28;20200;-75
2023/10/29 02:39:07;;;;;;;0.82;0.30;;;17.50;70.30;18.90;98671.00;;;;5031060;28;20665;-75
2023/10/29 02:41:34;;;;;;;1.70;0.45;;;17.40;70.20;18.90;98675.00;;;;5031060;28;20207;-74
2023/10/29 02:44:01;;;;;;;0.75;0.30;;;17.40;70.10;18.90;98669.00;;;;5031075;28;20669;-75
2023/10/29 02:46:30;;;;;;;1.92;0.45;;;17.40;70.00;18.80;98664.00;;;;5030814;28;20251;-76
2023/10/29 02:48:58;;;;;;;0.60;0.40;;;17.40;70.00;18.80;98672.00;;;;5030541;28;20208;-75
2023/10/29 02:51:25;;;;;;;0.98;0.30;;;17.40;70.00;18.80;98658.00;;;;5030710;28;20630;-77
2023/10/29 02:53:52;;;;;;;1.55;0.40;;;17.40;70.00;18.80;98668.00;;;;5030987;28;20192;-76
2023/10/29 02:56:20;;;;;;;0.88;0.38;;;17.40;70.00;18.80;98661.00;;;;5029949;28;20224;-75
2023/10/29 02:58:47;;;;;;;1.00;0.30;;;17.40;70.00;18.80;98679.00;;;;5030639;28;20200;-75
2023/10/29 03:01:15;;;;;;;0.90;0.30;;;17.30;70.00;18.80;98675.00;;;;5030840;28;20649;-75
2023/10/29 03:03:44;;;;;;;2.95;0.40;;;17.40;70.10;18.80;98673.00;;;;5030435;28;20192;-74
2023/10/29 03:06:11;;;;;;;1.08;0.28;;;17.40;70.10;18.80;98677.00;;;;5031545;28;20230;-75
2023/10/29 03:08:39;;;;;;;0.80;0.43;;;17.40;70.10;18.90;98679.00;;;;5029027;28;20290;-75
2023/10/29 03:11:06;;;;;;;1.05;0.40;;;17.40;70.10;18.90;98676.00;;;;5027749;28;20578;-75
2023/10/29 03:13:36;;;;;;;0.45;0.20;;;17.40;70.10;18.90;98678.00;;;;5030979;28;20207;-75
2023/10/29 03:18:34;;;;;;;1.30;0.30;;;17.40;70.10;18.90;98668.00;;;;5009532;28;20213;-75
2023/10/29 03:21:01;;;;;;;0.95;0.17;;;17.50;70.00;18.90;98665.00;;;;5011700;28;20193;-74
2023/10/29 03:23:28;;;;;;;1.55;0.40;;;17.50;70.00;18.90;98660.00;;;;5011103;28;20204;-74
2023/10/29 03:26:02;;;;;;;0.85;0.40;;;17.50;69.80;18.80;98667.00;;;;5011080;28;20220;-75
2023/10/29 03:28:29;;;;;;;1.13;0.28;;;17.50;69.70;18.90;98675.00;;;;5010847;28;20197;-74
2023/10/29 03:30:57;;;;;;;0.98;0.28;;;17.50;69.60;18.90;98687.00;;;;5011926;28;20220;-75
2023/10/29 03:33:25;;;;;;;1.50;0.70;;;17.50;69.50;18.90;98677.00;;;;5009303;28;20193;-75
2023/10/29 03:35:52;;;;;;;1.35;0.32;;;17.50;69.50;18.90;98685.00;;;;5011573;28;20384;-75
2023/10/29 03:38:19;;;;;;;1.25;0.30;;;17.50;69.40;18.90;98674.00;;;;5011662;28;20209;-75
2023/10/29 03:40:46;;;;;;;2.33;0.50;;;17.40;69.30;18.90;98685.00;;;;5010072;28;20200;-74
2023/10/29 03:43:13;;;;;;;0.30;0.20;;;17.50;69.40;18.90;98685.00;;;;5010724;28;20215;-74
2023/10/29 03:45:40;;;;;;;0.45;0.20;;;17.50;69.30;18.90;98678.00;;;;5003386;28;20197;-76
2023/10/29 03:48:08;;;;;;;1.98;0.63;;;17.50;69.30;18.90;98690.00;;;;4993251;28;20288;-74
2023/10/29 03:50:35;;;;;;;1.45;0.30;;;17.50;69.30;18.90;98683.00;;;;4991922;28;20663;-75
2023/10/29 03:53:02;;;;;;;2.40;0.25;;;17.50;69.30;18.90;98689.00;;;;5003489;28;20193;-75
2023/10/29 03:55:29;;;;;;;1.00;0.65;;;17.50;69.20;18.90;98695.00;;;;5011075;28;20193;-75
2023/10/29 03:57:56;;;;;;;3.58;0.45;;;17.50;69.20;18.90;98701.00;;;;5010666;28;20209;-75
2023/10/29 04:00:24;;;;;;;1.33;0.50;;;17.50;69.20;18.90;98701.00;;;;5011053;28;20193;-75
2023/10/29 04:02:51;;;;;;;0.93;0.25;;;17.50;69.20;18.90;98704.00;;;;5010737;28;20200;-75
2023/10/29 04:05:19;;;;;;;1.48;0.38;;;17.50;69.20;18.90;98707.00;;;;5015018;28;20207;-74
2023/10/29 04:07:46;;;;;;;0.40;0.20;;;17.50;69.20;18.90;98698.00;;;;5014478;28;20228;-75
2023/10/29 04:10:13;;;;;;;0.70;0.20;;;17.50;69.20;19.00;98711.00;;;;5014382;28;20197;-74
2023/10/29 04:12:41;;;;;;;0.82;0.40;;;17.60;69.20;19.00;98715.00;;;;5009304;28;20201;-74
2023/10/29 04:15:09;;;;;;;0.50;0.30;;;17.50;69.10;19.00;98721.00;;;;5014246;28;20635;-75
2023/10/29 04:17:36;;;;;;;0.63;0.30;;;17.60;69.10;19.00;98722.00;;;;5012665;28;20232;-74
2023/10/29 04:20:05;;;;;;;0.55;0.20;;;17.60;69.10;19.00;98719.00;;;;5014329;28;20200;-75
2023/10/29 04:22:34;;;;;;;0.93;0.30;;;17.60;69.00;19.00;98726.00;;;;5014459;28;20591;-75
2023/10/29 04:25:01;;;;;;;1.35;0.40;;;17.60;68.90;19.00;98707.00;;;;5015175;28;20207;-75
2023/10/29 04:27:28;;;;;;;2.58;0.35;;;17.60;68.80;19.00;98718.00;;;;5014265;28;20743;-76
2023/10/29 04:29:55;;;;;;;0.75;0.40;;;17.60;68.70;19.00;98726.00;;;;5014430;28;20732;-75
2023/10/29 04:32:22;;;;;;;0.47;0.30;;;17.60;68.70;19.00;98715.00;;;;5022305;28;20232;-74
2023/10/29 04:34:49;;;;;;;2.65;0.40;;;17.60;68.50;19.00;98716.00;;;;5016394;28;20684;-75
2023/10/29 04:37:16;;;;;;;1.75;0.30;;;17.60;68.50;19.00;98729.00;;;;5013824;28;20207;-75
2023/10/29 04:39:46;;;;;;;3.47;0.52;;;17.60;68.40;19.00;98717.00;;;;5014222;28;20219;-75
2023/10/29 04:42:13;;;;;;;0.60;0.30;;;17.60;68.30;19.00;98724.00;;;;5013552;28;20209;-75
2023/10/29 04:44:40;;;;;;;0.82;0.30;;;17.60;68.30;19.00;98724.00;;;;5015190;28;20208;-75
2023/10/29 04:47:07;;;;;;;0.40;0.20;;;17.60;68.20;19.00;98722.00;;;;5007241;28;20221;-75
2023/10/29 04:49:34;;;;;;;3.13;0.30;;;17.60;68.20;19.00;98731.00;;;;5013207;28;20209;-75
2023/10/29 04:52:01;;;;;;;1.20;0.25;;;17.60;68.00;19.00;98728.00;;;;5011309;28;20578;-75
2023/10/29 04:54:28;;;;;;;1.90;0.30;;;17.60;67.90;19.00;98725.00;;;;5012400;28;20193;-75
2023/10/29 04:56:57;;;;;;;1.88;0.22;;;17.60;67.90;19.00;98742.00;;;;5011121;28;20211;-74
2023/10/29 04:59:24;;;;;;;1.20;0.20;;;17.60;67.80;19.00;98743.00;;;;5013923;28;20201;-75
2023/10/29 05:01:51;;;;;;;0.77;0.55;;;17.60;67.70;18.90;98738.00;;;;5012430;28;20197;-75
2023/10/29 05:04:19;;;;;;;0.85;0.17;;;17.60;67.40;18.90;98745.00;;;;5012260;28;20213;-77
2023/10/29 05:06:46;;;;;;;0.40;0.15;;;17.50;67.30;18.90;98736.00;;;;4997081;28;20232;-77
2023/10/29 05:09:13;;;;;;;1.63;0.10;;;17.50;67.10;18.90;98734.00;;;;5013905;28;20197;-75
2023/10/29 05:11:40;;;;;;;0.40;0.10;;;17.50;67.00;18.80;98726.00;;;;5013325;28;20200;-76
2023/10/29 05:14:09;;;;;;;1.58;0.20;;;17.50;67.00;18.80;98730.00;;;;5013479;28;20537;-76
2023/10/29 05:16:38;;;;;;;1.05;0.30;;;17.50;67.50;18.80;98737.00;;;;5012742;28;20228;-75
2023/10/29 05:19:08;;;;;;;0.73;0.15;;;17.40;66.70;18.70;98748.00;;;;5009034;28;20204;-74
2023/10/29 05:21:37;;;;;;;1.13;0.22;;;17.40;66.80;18.70;98751.00;;;;5012252;28;20200;-75
2023/10/29 05:24:05;;;;;;;4.20;0.25;;;17.30;66.70;18.60;98755.00;;;;5014123;28;20235;-75
2023/10/29 05:26:33;;;;;;;1.70;0.55;;;17.30;66.80;18.60;98745.00;;;;5013437;28;20564;-76
2023/10/29 05:29:02;;;;;;;0.68;0.10;;;17.30;66.90;18.60;98741.00;;;;5012380;28;20197;-75
2023/10/29 05:31:38;;;;;;;1.77;0.30;;;17.20;66.80;18.60;98743.00;;;;5013579;28;20204;-75
2023/10/29 05:34:06;;;;;;;2.20;0.30;;;17.20;66.90;18.50;98758.00;;;;5010918;28;20197;-75
2023/10/29 05:36:35;;;;;;;2.25;0.30;;;17.20;67.00;18.50;98764.00;;;;5013643;28;20217;-75
2023/10/29 05:39:06;;;;;;;2.00;0.40;;;17.10;67.00;18.50;98764.00;;;;5012436;28;20207;-75
2023/10/29 05:41:36;;;;;;;2.28;0.20;;;17.10;67.10;18.50;98761.00;;;;5014390;28;20573;-75
2023/10/29 05:44:07;;;;;;;0.47;0.10;;;17.10;67.20;18.50;98779.00;;;;5010981;28;20201;-75
2023/10/29 05:46:37;;;;;;;2.00;0.30;;;17.10;67.20;18.40;98772.00;;;;5006144;28;20279;-74
2023/10/29 05:49:05;;;;;;;1.45;0.20;;;17.00;67.10;18.40;98763.00;;;;5009632;28;20555;-75
2023/10/29 05:51:33;;;;;;;4.30;0.57;;;17.00;67.20;18.40;98783.00;;;;5013129;28;20201;-75
2023/10/29 05:54:00;;;;;;;1.35;0.30;;;17.00;67.10;18.40;98769.00;;;;5022398;28;20193;-75
2023/10/29 05:56:27;;;;;;;2.05;0.47;;;17.00;67.20;18.30;98777.00;;;;5010099;28;20280;-75
2023/10/29 05:58:55;;;;;;;0.82;0.40;;;16.90;67.20;18.30;98787.00;;;;5012366;28;20287;-74
2023/10/29 06:01:22;;;;;;;3.22;0.40;;;16.90;67.20;18.30;98798.00;;;;5011588;28;20212;-75
2023/10/29 06:03:52;;;;;;;2.13;0.47;;;16.80;67.30;18.20;98788.00;;;;5009624;28;20745;-73
2023/10/29 06:06:21;;;;;;;1.75;0.30;;;16.90;67.30;18.20;98797.00;;;;5011723;28;20197;-74
2023/10/29 06:08:49;;;;;;;7.97;0.60;;;16.80;67.40;18.20;98807.00;;;;5011796;28;20197;-76
2023/10/29 06:11:16;;;;;;;0.80;0.20;;;16.80;67.40;18.20;98823.00;;;;5002379;28;20235;-74
2023/10/29 06:13:44;;;;;;;0.90;0.28;;;16.80;67.40;18.20;98832.00;;;;5004989;28;20255;-74
2023/10/29 06:16:11;;;;;;;1.00;0.40;;;16.80;67.40;18.20;98834.00;;;;5007492;28;20569;-75
2023/10/29 06:18:38;;;;;;;1.50;0.30;;;16.80;67.40;18.20;98827.00;;;;5001635;28;20205;-75
2023/10/29 06:21:07;;;;;;;1.27;0.22;;;16.80;67.40;18.20;98827.00;;;;5009849;28;20289;-75
2023/10/29 06:23:34;;;;;;;9.70;0.50;;;16.80;67.30;18.10;98841.00;;;;5009114;28;20196;-76
2023/10/29 06:26:01;;;;;;;3.17;0.40;;;16.70;67.20;18.20;98841.00;;;;5009993;28;20292;-75
2023/10/29 06:28:29;;;;;;;1.42;0.50;;;16.70;67.20;18.10;98859.00;;;;5010958;28;20592;-74
2023/10/29 06:30:56;;;;;;;0.88;0.28;;;16.70;67.10;18.10;98850.00;;;;5011198;28;20225;-75
2023/10/29 06:33:24;;;;;;;3.28;0.50;;;16.70;67.20;18.10;98855.00;;;;5010793;28;20205;-76
2023/10/29 06:35:51;;;;;;;4.07;0.30;;;16.70;67.20;18.10;98862.00;;;;5009861;28;20240;-76
2023/10/29 06:38:22;;;;;;;3.30;0.60;;;16.70;67.10;18.10;98867.00;;;;5015550;28;20434;-75
2023/10/29 06:40:50;;;;;;;4.55;0.52;;;16.60;67.00;18.00;98876.00;;;;5020901;28;20229;-74
2023/10/29 06:43:17;;;;;;;1.65;0.22;;;16.60;67.00;18.00;98875.00;;;;5010255;28;20201;-76
2023/10/29 06:45:44;;;;;;;0.95;0.35;;;16.70;67.00;18.00;98873.00;;;;5006168;28;20209;-75
2023/10/29 06:48:11;;;;;;;2.00;0.40;;;16.60;67.70;18.00;98884.00;;;;5009586;28;20225;-76
2023/10/29 06:50:40;;;;;;;3.67;0.68;;;16.60;67.00;18.00;98875.00;;;;5012403;28;20219;-74
2023/10/29 06:53:08;;;;;;;3.28;0.70;;;16.60;67.00;18.00;98884.00;;;;5010297;28;20193;-75
2023/10/29 06:55:40;;;;;;;1.77;0.25;;;16.60;67.00;18.00;98890.00;;;;5010162;28;20291;-75
2023/10/29 06:58:07;;;;;;;1.17;0.17;;;16.60;67.00;18.00;98897.00;;;;4999209;28;20189;-75
2023/10/29 07:00:34;;;;;;;3.80;0.32;;;16.60;67.10;17.90;98907.00;;;;5010133;28;20197;-74
2023/10/29 07:03:01;;;;;;;2.30;0.28;;;16.60;67.00;18.00;98904.00;;;;5023402;28;20207;-76
2023/10/29 07:05:29;;;;;;;2.05;0.30;;;16.50;67.00;17.90;98907.00;;;;5008055;28;20189;-75
2023/10/29 07:07:56;;;;;;;1.00;0.40;;;16.60;67.00;17.90;98907.00;;;;4998418;28;20400;-76
2023/10/29 07:10:23;;;;;;;1.73;0.20;;;16.50;66.90;17.90;98908.00;;;;4992989;28;20288;-75
2023/10/29 07:12:53;;;;;;;1.90;0.40;;;16.50;67.00;17.90;98923.00;;;;5006055;28;20280;-75
2023/10/29 07:15:20;;;;;;;1.65;0.30;;;16.50;67.00;17.90;98931.00;;;;5010569;28;20314;-75
2023/10/29 07:17:47;;;;;;;1.40;0.30;;;16.50;67.00;17.90;98927.00;;;;4994608;28;20320;-75
2023/10/29 07:20:24;;;;;;;1.95;0.40;;;16.60;67.10;17.90;98940.00;;;;5023243;28;20681;-75
2023/10/29 07:22:51;;;;;;;0.68;0.22;;;16.50;67.10;17.90;98950.00;;;;5005371;28;20201;-75
2023/10/29 07:25:18;;;;;;;1.33;0.20;;;16.50;67.10;18.00;98960.00;;;;5007165;28;20200;-75
2023/10/29 07:27:45;;;;;;;3.35;0.77;;;16.50;67.10;18.00;98957.00;;;;5011258;28;20320;-75
2023/10/29 07:30:14;;;;;;;3.03;0.57;;;16.50;67.20;18.00;98964.00;;;;5009983;28;20216;-74
2023/10/29 07:32:41;;;;;;;0.82;0.20;;;16.50;67.30;18.00;98964.00;;;;5017734;28;20578;-75
2023/10/29 07:35:08;;;;;;;3.28;0.40;;;16.50;67.20;18.00;98959.00;;;;5010769;28;20212;-74
2023/10/29 07:37:35;;;;;;;1.63;0.57;;;16.60;67.20;18.00;98955.00;;;;5013808;28;20572;-74
2023/10/29 07:40:02;;;;;;;3.65;0.40;;;16.50;67.10;18.00;98963.00;;;;5016081;28;20220;-74
2023/10/29 07:42:29;;;;;;;2.75;0.35;;;16.60;67.20;18.00;98963.00;;;;5014640;28;20204;-75
2023/10/29 07:44:58;;;;;;;1.17;0.30;;;16.60;67.20;18.00;98974.00;;;;5018087;28;20649;-74
2023/10/29 07:47:27;;;;;;;1.35;0.47;;;16.60;67.20;18.00;98969.00;;;;5014936;28;20228;-75
2023/10/29 07:49:54;;;;;;;0.88;0.13;;;16.60;67.20;18.00;98979.00;;;;5013549;28;20200;-74
2023/10/29 07:52:21;;;;;;;2.40;0.40;;;16.50;67.10;18.00;98995.00;;;;5011600;28;20201;-75
2023/10/29 07:54:48;;;;;;;1.77;0.40;;;16.50;67.30;18.00;98998.00;;;;5014986;28;20207;-75
2023/10/29 07:57:15;;;;;;;2.85;0.47;;;16.60;67.40;18.00;99004.00;;;;5015138;28;20410;-75
2023/10/29 07:59:42;;;;;;;1.38;0.30;;;16.60;67.50;18.00;99005.00;;;;5013449;28;20189;-75
2023/10/29 08:02:09;;;;;;;2.53;0.30;;;16.60;67.60;18.10;99006.00;;;;5014218;28;20209;-74
2023/10/29 08:04:38;;;;;;;3.78;0.30;;;16.60;67.60;18.10;99001.00;;;;5013217;28;20196;-76
2023/10/29 08:07:05;;;;;;;2.05;0.30;;;16.60;67.70;18.20;99010.00;;;;5015385;28;20288;-75
2023/10/29 08:09:32;;;;;;;2.28;0.40;;;16.60;67.90;18.20;99018.00;;;;5015526;28;20268;-75
2023/10/29 08:11:59;;;;;;;4.10;0.45;;;16.70;68.00;18.30;99015.00;;;;5015148;28;20201;-76
2023/10/29 08:14:26;;;;;;;1.98;0.38;;;16.70;68.70;18.30;99017.00;;;;5010839;28;20656;-75
2023/10/29 08:16:53;;;;;;;5.47;0.95;;;16.80;68.00;18.40;99033.00;;;;5001587;28;20232;-75
2023/10/29 08:19:20;;;;;;;2.75;0.55;;;16.80;67.90;18.40;99031.00;;;;5015268;28;20197;-75
2023/10/29 08:21:48;;;;;;;1.63;0.60;;;16.90;68.00;18.50;99033.00;;;;5015185;28;20189;-75
2023/10/29 08:24:15;;;;;;;3.63;0.80;;;17.00;68.10;18.60;99041.00;;;;5012772;28;20560;-75
2023/10/29 08:26:42;;;;;;;2.45;0.75;;;17.00;67.90;18.70;99034.00;;;;5012028;28;20240;-75
2023/10/29 08:29:12;;;;;;;3.10;0.38;;;17.10;67.90;18.70;99053.00;;;;5014672;28;20220;-75
2023/10/29 08:31:39;;;;;;;6.13;0.82;;;17.20;67.80;18.80;99053.00;;;;5013702;28;20189;-75
2023/10/29 08:34:06;;;;;;;1.95;0.82;;;17.20;67.50;18.80;99058.00;;;;5014250;28;20646;-75
2023/10/29 08:36:33;;;;;;;3.35;0.80;;;17.30;67.40;18.80;99063.00;;;;5014560;28;20211;-75
2023/10/29 08:39:02;;;;;;;2.72;0.70;;;17.30;67.30;18.90;99070.00;;;;5013791;28;20203;-75
2023/10/29 08:41:29;;;;;;;2.78;0.70;;;17.40;67.10;18.90;99072.00;;;;5014934;28;20243;-75
2023/10/29 08:43:56;;;;;;;4.30;0.93;;;17.40;66.90;18.90;99073.00;;;;5013879;28;20197;-74
2023/10/29 08:46:23;;;;;;;2.17;0.80;;;17.40;66.70;18.90;99073.00;;;;5014343;28;20222;-74
2023/10/29 08:48:51;;;;;;;7.28;0.85;;;17.50;66.60;18.90;99070.00;;;;5011206;28;20238;-75
2023/10/29 08:51:18;;;;;;;1.70;0.60;;;17.50;66.30;18.90;99079.00;;;;5011740;28;20552;-74
2023/10/29 08:53:45;;;;;;;3.55;1.10;;;17.50;66.40;18.90;99078.00;;;;5013565;28;20537;-74
2023/10/29 08:56:14;;;;;;;6.07;0.85;;;17.50;66.40;18.90;99085.00;;;;5011631;28;20293;-75
2023/10/29 08:58:41;;;;;;;5.93;0.82;;;17.50;66.30;19.00;99090.00;;;;5003176;28;20216;-73
2023/10/29 09:01:11;;;;;;;5.72;0.90;;;17.50;66.50;19.00;99091.00;;;;5013860;28;20688;-74
2023/10/29 09:03:38;;;;;;;2.95;0.60;;;17.50;66.40;19.00;99094.00;;;;5020883;28;20207;-74
2023/10/29 09:06:07;;;;;;;2.08;0.75;;;17.50;66.30;19.00;99110.00;;;;5013851;28;20196;-74
2023/10/29 09:08:34;;;;;;;2.28;0.50;;;17.50;66.20;19.00;99112.00;;;;5013746;28;20223;-74
2023/10/29 09:11:02;;;;;;;2.83;1.08;;;17.60;66.30;19.00;99110.00;;;;5007544;28;20216;-75
2023/10/29 09:13:31;;;;;;;4.93;1.10;;;17.60;66.20;19.00;99128.00;;;;5010156;28;20204;-74
2023/10/29 09:15:59;;;;;;;4.32;0.70;;;17.60;66.00;19.00;99135.00;;;;5012663;28;20197;-74
2023/10/29 09:18:26;;;;;;;2.15;0.88;;;17.60;66.40;19.10;99136.00;;;;5004509;28;20226;-74
2023/10/29 09:20:53;;;;;;;3.42;0.75;;;17.60;66.10;19.10;99141.00;;;;5007867;28;20252;-75
2023/10/29 09:23:22;;;;;;;2.50;0.80;;;17.60;66.00;19.10;99144.00;;;;5013432;28;20204;-75
2023/10/29 09:25:49;;;;;;;4.35;1.40;;;17.60;65.70;19.10;99147.00;;;;5013063;28;20232;-75
2023/10/29 09:28:17;;;;;;;5.15;0.73;;;17.70;65.70;19.10;99150.00;;;;5005250;28;20213;-74
2023/10/29 09:30:46;;;;;;;2.65;1.05;;;17.70;65.50;19.10;99151.00;;;;5014178;28;20239;-74
2023/10/29 09:33:15;;;;;;;3.30;1.27;;;17.70;65.50;19.20;99141.00;;;;5013557;28;20252;-74
2023/10/29 09:35:42;;;;;;;1.90;0.80;;;17.70;65.50;19.20;99140.00;;;;5011962;28;20643;-74
2023/10/29 09:38:09;;;;;;;2.70;0.90;;;17.70;65.20;19.20;99149.00;;;;5006752;28;20193;-73
2023/10/29 09:40:37;;;;;;;3.65;0.73;;;17.70;65.00;19.20;99154.00;;;;4993696;28;20205;-75
2023/10/29 09:43:08;;;;;;;3.60;0.88;;;17.70;64.70;19.20;99152.00;;;;5008884;28;20287;-74
2023/10/29 09:45:45;;;;;;;5.38;1.20;;;17.70;64.80;19.10;99162.00;;;;5012711;28;20563;-74
2023/10/29 09:48:15;;;;;;;3.00;0.50;;;17.70;64.90;19.20;99160.00;;;;5013816;28;20220;-73
2023/10/29 09:50:44;;;;;;;7.32;1.48;;;17.70;65.00;19.30;99147.00;;;;5013157;28;20200;-73
2023/10/29 09:53:13;;;;;;;0.85;0.40;;;17.80;64.80;19.30;99161.00;;;;5012449;28;20678;-74
2023/10/29 09:55:40;;;;;;;3.85;0.63;;;17.80;64.80;19.30;99150.00;;;;5011202;28;20200;-74
2023/10/29 09:58:09;;;;;;;2.67;0.57;;;17.80;64.70;19.30;99150.00;;;;5000099;28;20197;-74
2023/10/29 10:00:38;;;;;;;3.13;0.60;;;17.80;64.60;19.30;99162.00;;;;5005539;28;20185;-74
2023/10/29 10:03:05;;;;;;;3.58;1.10;;;17.90;64.60;19.40;99156.00;;;;5003851;28;20193;-74
2023/10/29 10:05:34;;;;;;;4.13;0.63;;;17.90;64.10;19.40;99158.00;;;;5006249;28;20193;-75
2023/10/29 10:08:01;;;;;;;2.50;0.85;;;17.90;64.30;19.40;99158.00;;;;5012250;28;20263;-75
2023/10/29 10:10:39;;;;;;;2.90;0.80;;;17.90;64.20;19.40;99165.00;;;;5012087;28;20195;-75
2023/10/29 10:13:07;;;;;;;4.00;0.40;;;18.00;64.00;19.50;99153.00;;;;5012316;28;20188;-74
2023/10/29 10:15:35;;;;;;;3.33;0.45;;;18.00;65.10;19.60;99154.00;;;;5012463;28;20228;-75
2023/10/29 10:18:05;;;;;;;6.13;0.80;;;18.00;64.30;19.60;99136.00;;;;5012103;28;20739;-75
2023/10/29 10:20:35;;;;;;;4.07;1.13;;;18.10;64.00;19.60;99132.00;;;;5011604;28;20197;-75
2023/10/29 10:23:04;;;;;;;2.08;0.65;;;18.10;64.10;19.70;99111.00;;;;5009874;28;20659;-74
2023/10/29 10:25:33;;;;;;;4.07;0.50;;;18.20;64.00;19.70;99121.00;;;;5003214;28;20196;-75
2023/10/29 10:28:03;;;;;;;3.78;0.68;;;18.20;63.90;19.80;99137.00;;;;5011902;28;20189;-74
2023/10/29 10:30:33;;;;;;;5.00;0.60;;;18.20;63.90;19.80;99136.00;;;;5012838;28;20606;-74
2023/10/29 10:33:12;;;;;;;3.17;0.63;;;18.30;63.80;19.70;99137.00;;;;5013341;28;20224;-75
2023/10/29 10:35:42;;;;;;;4.75;0.70;;;18.30;63.30;19.80;99161.00;;;;5012815;28;20669;-75
2023/10/29 10:38:10;;;;;;;1.65;0.40;;;18.30;63.60;19.90;99155.00;;;;5009497;28;20199;-75
2023/10/29 10:40:37;;;;;;;2.25;0.60;;;18.40;63.80;20.00;99164.00;;;;5010215;28;20199;-75
2023/10/29 10:43:05;;;;;;;3.97;1.23;;;18.40;63.90;20.00;99154.00;;;;5018084;28;20200;-75
2023/10/29 10:45:33;;;;;;;5.97;0.60;;;18.50;63.40;20.10;99158.00;;;;5021939;28;20196;-75
2023/10/29 10:48:05;;;;;;;5.82;0.60;;;18.50;63.40;20.10;99154.00;;;;5011011;28;20201;-75
2023/10/29 10:50:34;;;;;;;3.53;0.77;;;18.60;63.20;20.10;99146.00;;;;5010668;28;20202;-75
2023/10/29 10:53:04;;;;;;;3.28;0.75;;;18.60;62.90;20.20;99153.00;;;;5011431;28;20189;-74
2023/10/29 10:55:31;;;;;;;4.07;0.95;;;18.60;62.90;20.20;99162.00;;;;5020009;28;20672;-75
2023/10/29 10:58:01;;;;;;;6.43;1.08;;;18.70;62.70;20.20;99175.00;;;;5010405;28;20203;-75
2023/10/29 11:00:33;;;;;;;3.75;0.80;;;18.70;62.70;20.20;99183.00;;;;4999953;28;20197;-75